createdAt,value
2022-09-25T00:00:03.392Z,942.29
2022-09-25T00:05:03.146Z,942.29
2022-09-25T00:10:03.226Z,942.27
2022-09-25T00:15:03.271Z,942.33
2022-09-25T00:20:03.278Z,942.31
2022-09-25T00:25:04.197Z,942.39
2022-09-25T00:30:03.174Z,942.45
2022-09-25T00:35:08.263Z,942.53
2022-09-25T00:40:03.236Z,942.55
2022-09-25T00:45:03.094Z,942.55
2022-09-25T00:50:03.147Z,942.55
2022-09-25T00:55:03.201Z,942.57
2022-09-25T01:00:03.324Z,942.53
2022-09-25T01:05:04.112Z,942.53
2022-09-25T01:10:03.282Z,942.49
2022-09-25T01:15:03.097Z,942.41
2022-09-25T01:20:03.607Z,942.41
2022-09-25T01:25:03.201Z,942.45
2022-09-25T01:30:03.192Z,942.49
2022-09-25T01:35:03.336Z,942.53
2022-09-25T01:40:03.196Z,942.49
2022-09-25T01:45:03.275Z,942.53
2022-09-25T01:50:08.195Z,942.51
2022-09-25T01:55:03.043Z,942.47
2022-09-25T02:00:03.253Z,942.41
2022-09-25T02:05:03.092Z,942.39
2022-09-25T02:10:03.253Z,942.45
2022-09-25T02:15:03.068Z,942.41
2022-09-25T02:20:03.189Z,942.43
2022-09-25T02:25:03.279Z,942.39
2022-09-25T02:30:03.142Z,942.39
2022-09-25T02:35:03.123Z,942.39
2022-09-25T02:40:03.143Z,942.31
2022-09-25T02:45:04.093Z,942.19
2022-09-25T02:50:03.202Z,942.29
2022-09-25T02:55:03.065Z,942.27
2022-09-25T03:00:03.120Z,942.37
2022-09-25T03:05:03.128Z,942.47
2022-09-25T03:10:03.318Z,942.53
2022-09-25T03:15:03.081Z,942.65
2022-09-25T03:20:03.286Z,942.86
2022-09-25T03:25:03.081Z,943.18
2022-09-25T03:30:03.124Z,942.94
2022-09-25T03:35:03.032Z,942.92
2022-09-25T03:40:03.181Z,942.61
2022-09-25T03:45:03.182Z,942.51
2022-09-25T03:50:03.154Z,942.53
2022-09-25T03:55:03.020Z,942.35
2022-09-25T04:00:03.089Z,942.25
2022-09-25T04:05:02.993Z,942.10
2022-09-25T04:10:03.614Z,942.00
2022-09-25T04:15:03.100Z,941.82
2022-09-25T04:20:03.217Z,941.84
2022-09-25T04:25:03.150Z,941.82
2022-09-25T04:30:03.133Z,941.78
2022-09-25T04:35:03.063Z,941.68
2022-09-25T04:40:03.166Z,941.64
2022-09-25T04:45:08.150Z,941.59
2022-09-25T04:50:03.269Z,941.53
2022-09-25T04:55:03.124Z,941.57
2022-09-25T05:00:03.167Z,941.55
2022-09-25T05:05:03.040Z,941.55
2022-09-25T05:10:03.174Z,941.59
2022-09-25T05:15:03.104Z,941.61
2022-09-25T05:20:03.308Z,941.47
2022-09-25T05:25:08.063Z,941.90
2022-09-25T05:30:03.129Z,942.25
2022-09-25T05:35:03.019Z,941.76
2022-09-25T05:40:03.256Z,941.78
2022-09-25T05:45:07.488Z,941.63
2022-09-25T05:50:03.269Z,941.31
2022-09-25T05:55:03.157Z,940.92
2022-09-25T06:00:03.350Z,940.92
2022-09-25T06:05:03.048Z,941.02
2022-09-25T06:10:03.086Z,940.92
2022-09-25T06:15:03.086Z,941.53
2022-09-25T06:20:03.357Z,941.90
2022-09-25T06:25:03.039Z,941.45
2022-09-25T06:30:03.172Z,941.11
2022-09-25T06:35:03.067Z,940.86
2022-09-25T06:40:03.120Z,940.84
2022-09-25T06:45:03.117Z,940.74
2022-09-25T06:50:03.205Z,940.63
2022-09-25T06:55:03.051Z,940.55
2022-09-25T07:00:03.305Z,940.82
2022-09-25T07:05:03.059Z,940.84
2022-09-25T07:10:03.135Z,940.64
2022-09-25T07:15:03.031Z,940.72
2022-09-25T07:20:03.163Z,941.15
2022-09-25T07:25:03.186Z,941.11
2022-09-25T07:30:03.147Z,940.64
2022-09-25T07:35:03.034Z,940.17
2022-09-25T07:40:03.183Z,939.90
2022-09-25T07:45:03.049Z,939.86
2022-09-25T07:50:03.121Z,940.08
2022-09-25T07:55:03.125Z,940.90
2022-09-25T08:00:03.123Z,943.08
2022-09-25T08:05:03.006Z,943.16
2022-09-25T08:10:03.117Z,943.20
2022-09-25T08:15:03.116Z,943.10
2022-09-25T08:20:03.223Z,943.25
2022-09-25T08:25:03.034Z,943.33
2022-09-25T08:30:03.342Z,943.10
2022-09-25T08:35:03.081Z,942.63
2022-09-25T08:40:03.117Z,942.70
2022-09-25T08:45:20.340Z,942.59
2022-09-25T08:50:03.206Z,942.82
2022-09-25T08:55:03.208Z,943.35
2022-09-25T09:00:03.307Z,943.88
2022-09-25T09:05:03.066Z,943.70
2022-09-25T09:10:03.151Z,943.65
2022-09-25T09:15:04.068Z,943.59
2022-09-25T09:20:03.237Z,943.31
2022-09-25T09:25:03.126Z,943.14
2022-09-25T09:30:05.923Z,942.86
2022-09-25T09:35:08.014Z,943.00
2022-09-25T09:40:03.169Z,943.68
2022-09-25T09:45:03.022Z,943.66
2022-09-25T09:50:03.292Z,943.74
2022-09-25T09:55:03.040Z,943.35
2022-09-25T10:00:05.164Z,943.43
2022-09-25T10:05:03.441Z,943.72
2022-09-25T10:10:03.298Z,944.19
2022-09-25T10:15:03.109Z,944.02
2022-09-25T10:20:08.154Z,943.76
2022-09-25T10:25:03.087Z,943.80
2022-09-25T10:30:03.335Z,943.84
2022-09-25T10:35:03.115Z,944.00
2022-09-25T10:40:03.254Z,944.15
2022-09-25T10:45:03.133Z,944.15
2022-09-25T10:50:03.150Z,944.06
2022-09-25T10:55:03.060Z,943.82
2022-09-25T11:00:03.186Z,943.72
2022-09-25T11:05:03.102Z,943.78
2022-09-25T11:10:03.166Z,943.70
2022-09-25T11:15:03.138Z,943.49
2022-09-25T11:20:03.208Z,943.45
2022-09-25T11:25:03.106Z,943.33
2022-09-25T11:30:03.152Z,943.14
2022-09-25T11:35:03.101Z,943.16
2022-09-25T11:40:03.164Z,942.92
2022-09-25T11:45:03.052Z,942.86
2022-09-25T11:50:03.275Z,942.88
2022-09-25T11:55:04.106Z,942.96
2022-09-25T12:00:03.205Z,943.04
2022-09-25T12:05:03.089Z,943.02
2022-09-25T12:10:03.516Z,942.92
2022-09-25T12:15:03.098Z,942.84
2022-09-25T12:20:03.346Z,942.86
2022-09-25T12:25:03.070Z,942.84
2022-09-25T12:30:03.290Z,943.00
2022-09-25T12:35:03.079Z,943.02
2022-09-25T12:40:03.210Z,943.16
2022-09-25T12:45:03.221Z,943.29
2022-09-25T12:50:03.231Z,943.29
2022-09-25T12:55:03.143Z,943.27
2022-09-25T13:00:03.157Z,943.02
2022-09-25T13:05:03.136Z,942.92
2022-09-25T13:10:03.179Z,942.86
2022-09-25T13:15:03.097Z,942.80
2022-09-25T13:20:03.421Z,942.63
2022-09-25T13:25:03.070Z,942.66
2022-09-25T13:30:03.183Z,942.61
2022-09-25T13:35:03.161Z,942.65
2022-09-25T13:40:03.376Z,942.68
2022-09-25T13:45:03.030Z,942.90
2022-09-25T13:50:03.188Z,942.84
2022-09-25T13:55:03.070Z,942.74
2022-09-25T14:00:03.239Z,942.78
2022-09-25T14:05:03.111Z,942.90
2022-09-25T14:10:03.113Z,942.82
2022-09-25T14:15:03.121Z,942.55
2022-09-25T14:20:03.482Z,942.45
2022-09-25T14:25:03.018Z,942.41
2022-09-25T14:30:03.063Z,942.21
2022-09-25T14:35:08.045Z,942.13
2022-09-25T14:40:03.199Z,942.04
2022-09-25T14:45:03.062Z,941.88
2022-09-25T14:50:03.238Z,941.64
2022-09-25T14:55:03.048Z,941.55
2022-09-25T15:00:03.303Z,941.49
2022-09-25T15:05:03.086Z,941.53
2022-09-25T15:10:03.355Z,941.55
2022-09-25T15:15:03.126Z,941.49
2022-09-25T15:20:03.239Z,941.49
2022-09-25T15:25:03.044Z,941.59
2022-09-25T15:30:03.253Z,941.72
2022-09-25T15:35:04.194Z,942.37
2022-09-25T15:40:03.355Z,943.41
2022-09-25T15:45:03.024Z,944.02
2022-09-25T15:50:03.482Z,944.21
2022-09-25T15:55:03.320Z,944.39
2022-09-25T16:00:03.140Z,944.04
2022-09-25T16:05:03.068Z,944.15
2022-09-25T16:10:03.167Z,943.98
2022-09-25T16:15:03.116Z,943.45
2022-09-25T16:20:03.190Z,943.35
2022-09-25T16:25:03.225Z,943.06
2022-09-25T16:30:04.542Z,942.98
2022-09-25T16:35:03.103Z,942.88
2022-09-25T16:40:03.156Z,942.80
2022-09-25T16:45:03.048Z,942.72
2022-09-25T16:50:03.274Z,942.65
2022-09-25T16:55:03.046Z,942.68
2022-09-25T17:00:03.331Z,942.57
2022-09-25T17:05:03.094Z,942.45
2022-09-25T17:10:03.276Z,942.37
2022-09-25T17:15:03.064Z,942.25
2022-09-25T17:20:03.198Z,942.17
2022-09-25T17:25:03.025Z,942.04
2022-09-25T17:30:03.317Z,941.82
2022-09-25T17:35:03.144Z,941.68
2022-09-25T17:40:03.201Z,941.49
2022-09-25T17:45:03.102Z,941.43
2022-09-25T17:50:03.379Z,941.45
2022-09-25T17:55:03.099Z,941.53
2022-09-25T18:00:03.231Z,941.66
2022-09-25T18:05:03.050Z,941.96
2022-09-25T18:10:03.244Z,942.11
2022-09-25T18:15:03.202Z,942.15
2022-09-25T18:20:03.233Z,942.11
2022-09-25T18:25:03.127Z,942.23
2022-09-25T18:30:03.203Z,942.21
2022-09-25T18:35:03.071Z,942.37
2022-09-25T18:40:03.137Z,942.41
2022-09-25T18:45:03.187Z,942.84
2022-09-25T18:50:03.260Z,943.12
2022-09-25T18:55:03.097Z,943.10
2022-09-25T19:00:03.206Z,942.35
2022-09-25T19:05:04.221Z,942.08
2022-09-25T19:10:03.164Z,941.70
2022-09-25T19:15:03.634Z,941.86
2022-09-25T19:20:03.482Z,941.76
2022-09-25T19:25:03.077Z,942.02
2022-09-25T19:30:03.254Z,942.21
2022-09-25T19:35:03.118Z,942.65
2022-09-25T19:40:03.178Z,942.84
2022-09-25T19:45:03.023Z,942.49
2022-09-25T19:50:08.235Z,942.43
2022-09-25T19:55:03.173Z,942.47
2022-09-25T20:00:03.305Z,942.45
2022-09-25T20:05:03.047Z,942.15
2022-09-25T20:10:03.153Z,941.90
2022-09-25T20:15:03.196Z,941.92
2022-09-25T20:20:03.257Z,941.59
2022-09-25T20:25:03.050Z,941.33
2022-09-25T20:30:03.180Z,941.29
2022-09-25T20:35:08.068Z,941.43
2022-09-25T20:40:03.267Z,941.39
2022-09-25T20:45:03.106Z,941.59
2022-09-25T20:50:03.199Z,942.21
2022-09-25T20:55:03.185Z,942.13
2022-09-25T21:00:03.128Z,942.29
2022-09-25T21:05:03.100Z,941.98
2022-09-25T21:10:03.072Z,942.19
2022-09-25T21:15:03.151Z,942.19
2022-09-25T21:20:03.368Z,942.51
2022-09-25T21:25:03.024Z,942.63
2022-09-25T21:30:03.248Z,942.39
2022-09-25T21:35:03.122Z,942.29
2022-09-25T21:40:05.517Z,942.68
2022-09-25T21:45:03.311Z,942.61
2022-09-25T21:50:03.232Z,942.57
2022-09-25T21:55:03.111Z,942.02
2022-09-25T22:00:03.144Z,942.21
2022-09-25T22:05:03.065Z,942.19
2022-09-25T22:10:03.233Z,942.21
2022-09-25T22:15:03.224Z,942.70
2022-09-25T22:20:05.496Z,942.66
2022-09-25T22:25:03.114Z,942.49
2022-09-25T22:30:03.174Z,942.88
2022-09-25T22:35:03.140Z,942.96
2022-09-25T22:40:03.201Z,943.35
2022-09-25T22:45:03.135Z,943.08
2022-09-25T22:50:03.191Z,942.66
2022-09-25T22:55:03.189Z,943.06
2022-09-25T23:00:03.144Z,943.33
2022-09-25T23:05:06.484Z,943.12
2022-09-25T23:10:03.351Z,943.37
2022-09-25T23:15:03.139Z,943.35
2022-09-25T23:20:03.262Z,943.59
2022-09-25T23:25:03.164Z,943.51
2022-09-25T23:30:03.251Z,943.27
2022-09-25T23:35:03.154Z,943.39
2022-09-25T23:40:03.296Z,943.45
2022-09-25T23:45:03.125Z,943.76
2022-09-25T23:50:04.708Z,944.08
2022-09-25T23:55:03.141Z,944.06
